NORTHERN NASSAU  -  Coastal Flood Statement Coastal Flood Statement        SOUTHERN NASSAU  -  Coastal Flood Statement Coastal Flood Statement      

Active alerts

Northern Nassau
  Details for Northern Nassau Coastal Flood Statement
Southern Nassau
  Details for Southern Nassau Coastal Flood Statement


WXM80 ListenWXM80 Stop

You find our weather info also at:

UK Metoffice

WeatherCloud

Weather Underground

Northeastern Weather Network

AWEKAS

Citizen Weather Observer Program (CWOP)

HAMweather, WeatherForYou, PWS Weather


Weather Underground History page Text

Daily Summary for February 18, 2016 Units:  English    Metric   Both
« Previous Day
Next Day »
Daily Weekly Monthly Yearly Custom
  High: Low: Average:
Temperature: 36.4 °F 27.2 °F 32.2 °F
Dew Point: 27.6 °F 8.3 °F 16.2 °F
Humidity: 77 % 34 % 53 %
Wind Speed: 12.4 mph 1.5 mph 6.2 mph
Wind Gust: 18.4 mph - -
Wind:- - SW
Pressure: 30.53 in 30.16 in -
Precipitation: 0.00 in    
Historical Graphs
 
 
Tabular Data for February 18, 2016
Time Temperature Dew Point Pressure Wind Wind Speed Wind Gust Humidity Rainfall Rate (Hourly)
00:02 34.9 °F 27.5 °F 30.17 in SW 5.0 mph 8.1 mph 74 % 0.00 in
00:12 34.8 °F 27.4 °F 30.17 in WSW 5.2 mph 6.9 mph 74 % 0.00 in
00:17 34.7 °F 27.3 °F 30.17 in SW 2.8 mph 6.9 mph 74 % 0.00 in
00:22 34.7 °F 27.3 °F 30.17 in NW 2.6 mph 3.5 mph 74 % 0.00 in
00:27 34.6 °F 27.2 °F 30.17 in West 5.1 mph 8.0 mph 74 % 0.00 in
00:32 34.6 °F 27.5 °F 30.16 in West 3.3 mph 6.0 mph 75 % 0.00 in
00:38 34.5 °F 27.4 °F 30.17 in WSW 2.9 mph 4.6 mph 75 % 0.00 in
00:43 34.4 °F 27.3 °F 30.17 in WSW 3.9 mph 9.2 mph 75 % 0.00 in
00:48 34.3 °F 27.5 °F 30.17 in WSW 5.0 mph 9.2 mph 76 % 0.00 in
00:53 34.3 °F 27.5 °F 30.17 in West 2.9 mph 4.6 mph 76 % 0.00 in
00:58 34.3 °F 27.5 °F 30.17 in West 3.6 mph 5.8 mph 76 % 0.00 in
01:03 34.2 °F 27.4 °F 30.18 in WSW 4.8 mph 6.9 mph 76 % 0.00 in
01:08 34.1 °F 27.3 °F 30.18 in SW 4.6 mph 10.0 mph 76 % 0.00 in
01:13 34.1 °F 27.6 °F 30.19 in West 6.5 mph 8.1 mph 77 % 0.00 in
01:18 34.2 °F 27.4 °F 30.19 in WNW 4.2 mph 6.9 mph 76 % 0.00 in
01:23 34.1 °F 27.3 °F 30.19 in WSW 6.1 mph 10.4 mph 76 % 0.00 in
01:29 34.0 °F 27.5 °F 30.19 in SW 3.8 mph 11.0 mph 77 % 0.00 in
01:34 33.9 °F 27.4 °F 30.19 in West 2.9 mph 6.9 mph 77 % 0.00 in
01:39 33.9 °F 27.4 °F 30.19 in WNW 6.0 mph 11.5 mph 77 % 0.00 in
01:44 33.7 °F 27.3 °F 30.19 in NNW 4.5 mph 10.4 mph 77 % 0.00 in
01:49 33.7 °F 26.9 °F 30.19 in North 4.7 mph 10.4 mph 76 % 0.00 in
01:54 33.6 °F 26.8 °F 30.20 in WSW 2.3 mph 5.8 mph 76 % 0.00 in
01:59 33.6 °F 26.8 °F 30.20 in WNW 4.9 mph 9.2 mph 76 % 0.00 in
02:04 33.5 °F 26.7 °F 30.20 in WNW 4.2 mph 8.0 mph 76 % 0.00 in
02:14 33.3 °F 26.5 °F 30.21 in WSW 4.9 mph 6.9 mph 76 % 0.00 in
02:20 33.3 °F 26.9 °F 30.21 in WSW 4.0 mph 6.9 mph 77 % 0.00 in
02:25 33.2 °F 26.8 °F 30.21 in NW 4.4 mph 10.4 mph 77 % 0.00 in
02:35 33.1 °F 26.4 °F 30.22 in West 6.6 mph 11.5 mph 76 % 0.00 in
02:40 33.1 °F 26.4 °F 30.22 in West 1.5 mph 3.5 mph 76 % 0.00 in
02:45 33.0 °F 25.9 °F 30.22 in WNW 5.7 mph 9.2 mph 75 % 0.00 in
02:50 33.0 °F 25.9 °F 30.22 in WNW 4.7 mph 10.4 mph 75 % 0.00 in
02:55 32.9 °F 25.8 °F 30.22 in WNW 3.6 mph 7.0 mph 75 % 0.00 in
03:00 32.9 °F 25.5 °F 30.22 in WNW 2.7 mph 11.5 mph 74 % 0.00 in
03:05 32.8 °F 25.4 °F 30.23 in WNW 3.7 mph 6.9 mph 74 % 0.00 in
03:11 32.7 °F 25.0 °F 30.22 in WNW 4.2 mph 6.9 mph 73 % 0.00 in
03:16 32.7 °F 24.7 °F 30.22 in West 2.4 mph 6.9 mph 72 % 0.00 in
03:26 32.6 °F 23.9 °F 30.23 in WNW 4.0 mph 8.1 mph 70 % 0.00 in
03:31 32.6 °F 23.9 °F 30.23 in West 3.2 mph 9.2 mph 70 % 0.00 in
03:36 32.5 °F 23.8 °F 30.23 in West 7.9 mph 15.0 mph 70 % 0.00 in
03:41 32.6 °F 23.6 °F 30.24 in NW 3.4 mph 9.2 mph 69 % 0.00 in
03:46 32.5 °F 23.5 °F 30.24 in NW 4.8 mph 9.2 mph 69 % 0.00 in
03:51 32.5 °F 22.8 °F 30.24 in NW 6.2 mph 13.8 mph 67 % 0.00 in
03:56 32.5 °F 22.8 °F 30.24 in NNW 2.3 mph 11.5 mph 67 % 0.00 in
04:02 32.5 °F 22.4 °F 30.25 in WNW 5.9 mph 11.5 mph 66 % 0.00 in
04:07 32.5 °F 22.0 °F 30.26 in WNW 4.8 mph 10.4 mph 65 % 0.00 in
04:12 32.5 °F 21.7 °F 30.26 in NW 4.5 mph 16.1 mph 64 % 0.00 in
04:17 32.4 °F 20.8 °F 30.26 in WNW 6.7 mph 11.5 mph 62 % 0.00 in
04:22 32.2 °F 20.6 °F 30.26 in WNW 7.5 mph 13.0 mph 62 % 0.00 in
04:27 32.1 °F 20.5 °F 30.27 in WNW 4.6 mph 13.8 mph 62 % 0.00 in
04:37 31.8 °F 20.3 °F 30.28 in NW 9.0 mph 12.7 mph 62 % 0.00 in
04:42 31.7 °F 20.2 °F 30.28 in NNW 3.7 mph 8.1 mph 62 % 0.00 in
04:47 31.6 °F 20.4 °F 30.27 in WNW 4.3 mph 6.0 mph 63 % 0.00 in
04:53 31.5 °F 20.7 °F 30.27 in NNW 2.8 mph 8.1 mph 64 % 0.00 in
04:58 31.3 °F 20.2 °F 30.27 in NNW 4.7 mph 11.5 mph 63 % 0.00 in
05:03 31.2 °F 20.1 °F 30.27 in NW 5.2 mph 10.4 mph 63 % 0.00 in
05:05 31.0 °F 19.5 °F 30.29 in NW 5.0 mph 11.0 mph 62 % 0.00 in
05:08 31.1 °F 20.0 °F 30.27 in NNW 3.4 mph 8.1 mph 63 % 0.00 in
05:13 31.0 °F 20.2 °F 30.27 in NW 5.6 mph 12.0 mph 64 % 0.00 in
05:15 30.8 °F 19.3 °F 30.29 in NW 2.0 mph 13.0 mph 62 % 0.00 in
05:18 30.9 °F 20.1 °F 30.27 in NW 7.4 mph 11.5 mph 64 % 0.00 in
05:23 30.9 °F 19.8 °F 30.27 in NW 6.1 mph 10.4 mph 63 % 0.00 in
05:25 30.8 °F 19.3 °F 30.30 in NW 5.0 mph 11.0 mph 62 % 0.00 in
05:28 30.9 °F 20.1 °F 30.28 in WNW 5.3 mph 17.3 mph 64 % 0.00 in
05:33 31.0 °F 20.2 °F 30.28 in NNE 5.9 mph 8.1 mph 64 % 0.00 in
05:35 30.7 °F 19.2 °F 30.31 in NW 7.0 mph 12.0 mph 62 % 0.00 in
05:38 31.0 °F 19.5 °F 30.28 in NNW 5.3 mph 11.5 mph 62 % 0.00 in
05:44 31.0 °F 19.9 °F 30.28 in NW 4.0 mph 9.2 mph 63 % 0.00 in
05:45 30.7 °F 18.8 °F 30.31 in NW 6.0 mph 12.0 mph 61 % 0.00 in
05:49 31.0 °F 19.5 °F 30.28 in NW 4.9 mph 10.4 mph 62 % 0.00 in
05:54 31.0 °F 19.1 °F 30.28 in North 6.9 mph 15.0 mph 61 % 0.00 in
06:15 30.5 °F 17.9 °F 30.32 in NNW 8.0 mph 15.0 mph 59 % 0.00 in
06:25 30.3 °F 17.7 °F 30.33 in NNW 7.0 mph 13.0 mph 59 % 0.00 in
06:35 30.2 °F 18.0 °F 30.33 in NNW 3.0 mph 11.0 mph 60 % 0.00 in
06:45 30.2 °F 18.7 °F 30.34 in NNW 5.0 mph 12.0 mph 62 % 0.00 in
08:05 30.1 °F 17.9 °F 30.34 in NNW 10.7 mph 13.0 mph 60 % 0.00 in
08:10 30.0 °F 17.4 °F 30.34 in NNW 3.0 mph 7.0 mph 59 % 0.00 in
08:15 30.0 °F 17.4 °F 30.35 in North 4.1 mph 5.8 mph 59 % 0.00 in
08:20 30.2 °F 17.6 °F 30.35 in NW 5.2 mph 10.4 mph 59 % 0.00 in
08:25 30.2 °F 16.4 °F 30.35 in NW 3.8 mph 13.8 mph 56 % 0.00 in
08:30 30.4 °F 16.1 °F 30.35 in NW 5.4 mph 5.8 mph 55 % 0.00 in
08:35 30.6 °F 16.7 °F 30.35 in NNW 4.0 mph 8.1 mph 56 % 0.00 in
08:40 30.8 °F 16.9 °F 30.36 in NNW 6.0 mph 11.5 mph 56 % 0.00 in
08:46 31.0 °F 17.5 °F 30.36 in NNE 5.0 mph 8.1 mph 57 % 0.00 in
08:51 31.2 °F 16.9 °F 30.36 in North 3.9 mph 12.7 mph 55 % 0.00 in
09:01 31.5 °F 16.3 °F 30.36 in NNE 7.9 mph 11.5 mph 53 % 0.00 in
09:06 31.6 °F 16.4 °F 30.37 in North 5.5 mph 10.4 mph 53 % 0.00 in
09:11 31.8 °F 16.6 °F 30.37 in North 7.0 mph 11.0 mph 53 % 0.00 in
09:16 31.9 °F 16.2 °F 30.37 in North 6.6 mph 9.2 mph 52 % 0.00 in
09:21 32.1 °F 16.0 °F 30.37 in NE 7.1 mph 12.7 mph 51 % 0.00 in
09:26 32.4 °F 16.7 °F 30.37 in North 7.6 mph 8.1 mph 52 % 0.00 in
09:31 32.5 °F 16.4 °F 30.37 in NE 5.8 mph 9.2 mph 51 % 0.00 in
09:37 32.6 °F 16.0 °F 30.37 in North 6.3 mph 10.4 mph 50 % 0.00 in
09:42 32.7 °F 16.5 °F 30.38 in NNW 5.9 mph 15.0 mph 51 % 0.00 in
09:47 32.6 °F 16.4 °F 30.38 in North 5.3 mph 8.1 mph 51 % 0.00 in
09:52 32.4 °F 15.8 °F 30.39 in NNW 5.4 mph 13.8 mph 50 % 0.00 in
09:57 32.4 °F 16.7 °F 30.38 in NNW 6.7 mph 10.4 mph 52 % 0.00 in
10:02 32.6 °F 17.3 °F 30.39 in NNW 4.5 mph 11.5 mph 53 % 0.00 in
10:12 32.6 °F 16.0 °F 30.39 in NW 5.9 mph 11.5 mph 50 % 0.00 in
10:17 32.9 °F 16.3 °F 30.39 in North 7.5 mph 11.5 mph 50 % 0.00 in
10:22 33.2 °F 16.5 °F 30.39 in North 5.6 mph 9.2 mph 50 % 0.00 in
10:28 33.8 °F 17.6 °F 30.39 in North 3.7 mph 16.1 mph 51 % 0.00 in
10:33 34.1 °F 16.4 °F 30.39 in NNW 4.1 mph 9.2 mph 48 % 0.00 in
10:38 34.4 °F 17.2 °F 30.39 in NW 4.5 mph 12.7 mph 49 % 0.00 in
10:43 34.5 °F 17.3 °F 30.39 in NW 5.8 mph 12.0 mph 49 % 0.00 in
10:48 34.6 °F 16.4 °F 30.39 in North 5.9 mph 11.5 mph 47 % 0.00 in
10:53 34.7 °F 17.0 °F 30.39 in NNW 6.2 mph 10.4 mph 48 % 0.00 in
10:58 35.0 °F 17.3 °F 30.39 in North 4.2 mph 9.2 mph 48 % 0.00 in
11:03 35.2 °F 16.0 °F 30.39 in North 7.0 mph 12.7 mph 45 % 0.00 in
11:08 35.2 °F 16.0 °F 30.39 in NNE 7.5 mph 9.2 mph 45 % 0.00 in
11:13 35.5 °F 17.7 °F 30.39 in NNW 5.9 mph 8.1 mph 48 % 0.00 in
11:19 35.6 °F 16.8 °F 30.39 in WNW 4.5 mph 9.0 mph 46 % 0.00 in
11:24 35.5 °F 16.7 °F 30.39 in NNE 5.8 mph 10.4 mph 46 % 0.00 in
11:29 35.6 °F 17.8 °F 30.39 in NNW 4.4 mph 10.0 mph 48 % 0.00 in
11:34 35.7 °F 15.4 °F 30.39 in NNE 7.4 mph 12.7 mph 43 % 0.00 in
11:39 35.6 °F 15.8 °F 30.39 in NNW 6.8 mph 11.5 mph 44 % 0.00 in
11:44 35.3 °F 15.5 °F 30.39 in NNE 5.7 mph 12.0 mph 44 % 0.00 in
11:49 35.2 °F 14.4 °F 30.39 in NNE 8.9 mph 13.8 mph 42 % 0.00 in
11:54 35.0 °F 15.8 °F 30.39 in NNE 9.4 mph 12.7 mph 45 % 0.00 in
11:59 34.8 °F 14.5 °F 30.39 in North 12.4 mph 16.1 mph 43 % 0.00 in
12:04 34.8 °F 15.6 °F 30.39 in NNE 6.0 mph 9.2 mph 45 % 0.00 in
12:10 35.0 °F 16.3 °F 30.39 in NNE 6.7 mph 10.4 mph 46 % 0.00 in
12:15 35.2 °F 16.0 °F 30.39 in NNW 4.5 mph 13.0 mph 45 % 0.00 in
12:20 35.3 °F 16.6 °F 30.39 in NNW 3.3 mph 10.4 mph 46 % 0.00 in
12:25 35.6 °F 17.3 °F 30.38 in NE 5.3 mph 9.0 mph 47 % 0.00 in
12:30 36.0 °F 15.6 °F 30.39 in NE 8.9 mph 13.0 mph 43 % 0.00 in
12:35 36.0 °F 15.1 °F 30.39 in NNE 10.4 mph 16.1 mph 42 % 0.00 in
12:40 35.9 °F 14.5 °F 30.38 in NE 8.9 mph 11.5 mph 41 % 0.00 in
12:45 35.9 °F 13.9 °F 30.38 in NNE 7.7 mph 13.8 mph 40 % 0.00 in
12:50 35.9 °F 13.3 °F 30.38 in North 8.3 mph 10.4 mph 39 % 0.00 in
12:55 35.9 °F 13.9 °F 30.38 in NNE 5.5 mph 13.8 mph 40 % 0.00 in
13:01 36.1 °F 14.6 °F 30.38 in North 6.2 mph 11.5 mph 41 % 0.00 in
13:06 36.1 °F 14.1 °F 30.38 in North 8.5 mph 13.8 mph 40 % 0.00 in
13:11 36.0 °F 14.0 °F 30.38 in NNE 6.4 mph 10.4 mph 40 % 0.00 in
13:16 36.1 °F 14.1 °F 30.38 in NNW 8.3 mph 12.0 mph 40 % 0.00 in
13:21 36.2 °F 13.0 °F 30.38 in NE 8.2 mph 15.0 mph 38 % 0.00 in
13:26 36.3 °F 14.3 °F 30.38 in NNE 4.2 mph 6.9 mph 40 % 0.00 in
13:31 36.4 °F 12.6 °F 30.38 in NNE 6.1 mph 12.0 mph 37 % 0.00 in
13:36 36.2 °F 11.8 °F 30.38 in North 5.0 mph 10.4 mph 36 % 0.00 in
13:41 36.2 °F 12.4 °F 30.38 in North 5.9 mph 9.2 mph 37 % 0.00 in
13:47 36.4 °F 12.6 °F 30.38 in North 7.2 mph 10.4 mph 37 % 0.00 in
13:52 36.3 °F 12.5 °F 30.38 in NNW 5.7 mph 11.5 mph 37 % 0.00 in
14:02 36.1 °F 12.9 °F 30.38 in North 7.7 mph 12.7 mph 38 % 0.00 in
14:07 35.9 °F 12.1 °F 30.38 in NNE 9.7 mph 13.8 mph 37 % 0.00 in
14:12 35.6 °F 11.2 °F 30.38 in North 7.7 mph 10.4 mph 36 % 0.00 in
14:17 35.6 °F 10.6 °F 30.38 in NNW 7.1 mph 12.7 mph 35 % 0.00 in
14:22 35.5 °F 11.8 °F 30.38 in North 6.3 mph 13.8 mph 37 % 0.00 in
14:27 35.3 °F 10.3 °F 30.38 in NW 6.4 mph 11.5 mph 35 % 0.00 in
14:38 35.0 °F 9.4 °F 30.38 in WNW 4.4 mph 10.4 mph 34 % 0.00 in
14:43 34.9 °F 10.0 °F 30.38 in WNW 6.7 mph 10.4 mph 35 % 0.00 in
14:48 34.9 °F 10.6 °F 30.39 in NNW 8.6 mph 17.3 mph 36 % 0.00 in
14:53 34.7 °F 11.6 °F 30.39 in NNW 8.4 mph 12.0 mph 38 % 0.00 in
14:58 34.6 °F 11.6 °F 30.39 in North 4.1 mph 8.1 mph 38 % 0.00 in
15:03 34.6 °F 11.6 °F 30.38 in North 10.3 mph 16.1 mph 38 % 0.00 in
15:08 34.6 °F 11.6 °F 30.39 in NNW 5.5 mph 11.0 mph 38 % 0.00 in
15:13 34.4 °F 10.2 °F 30.39 in NW 5.4 mph 11.5 mph 36 % 0.00 in
15:18 34.3 °F 9.4 °F 30.39 in North 7.6 mph 15.0 mph 35 % 0.00 in
15:23 34.2 °F 8.7 °F 30.39 in North 4.3 mph 12.7 mph 34 % 0.00 in
15:29 34.1 °F 8.6 °F 30.39 in NNW 7.9 mph 13.8 mph 34 % 0.00 in
15:34 34.1 °F 9.3 °F 30.39 in North 6.6 mph 10.4 mph 35 % 0.00 in
15:39 34.1 °F 9.9 °F 30.39 in North 4.1 mph 16.1 mph 36 % 0.00 in
15:44 34.0 °F 9.2 °F 30.39 in North 8.8 mph 16.1 mph 35 % 0.00 in
15:54 33.8 °F 8.4 °F 30.40 in NNE 7.1 mph 17.0 mph 34 % 0.00 in
15:59 33.8 °F 10.2 °F 30.40 in NNW 7.0 mph 11.5 mph 37 % 0.00 in
16:04 33.7 °F 9.5 °F 30.40 in North 6.6 mph 12.7 mph 36 % 0.00 in
16:09 33.7 °F 8.3 °F 30.40 in NW 5.8 mph 10.4 mph 34 % 0.00 in
16:14 33.7 °F 10.1 °F 30.40 in NNW 8.3 mph 11.5 mph 37 % 0.00 in
16:20 33.6 °F 11.8 °F 30.40 in NW 5.6 mph 10.0 mph 40 % 0.00 in
16:25 33.5 °F 10.0 °F 30.40 in NNW 7.5 mph 13.8 mph 37 % 0.00 in
16:35 33.2 °F 9.1 °F 30.41 in NNE 5.8 mph 15.0 mph 36 % 0.00 in
16:40 33.1 °F 10.2 °F 30.41 in NE 6.7 mph 11.5 mph 38 % 0.00 in
16:45 33.1 °F 10.2 °F 30.41 in NNW 5.2 mph 8.1 mph 38 % 0.00 in
16:50 33.0 °F 11.3 °F 30.41 in NW 6.9 mph 11.5 mph 40 % 0.00 in
16:55 32.9 °F 10.6 °F 30.42 in NNW 6.6 mph 12.7 mph 39 % 0.00 in
17:00 32.8 °F 11.1 °F 30.41 in North 5.9 mph 9.2 mph 40 % 0.00 in
17:05 32.7 °F 10.4 °F 30.42 in NNE 6.2 mph 16.0 mph 39 % 0.00 in
17:11 32.5 °F 11.4 °F 30.42 in NE 8.6 mph 15.0 mph 41 % 0.00 in
17:21 32.2 °F 10.0 °F 30.42 in North 8.8 mph 17.3 mph 39 % 0.00 in
17:26 32.0 °F 9.2 °F 30.42 in North 9.2 mph 13.8 mph 38 % 0.00 in
17:31 31.9 °F 10.3 °F 30.42 in NNE 9.3 mph 12.7 mph 40 % 0.00 in
17:36 31.7 °F 10.1 °F 30.43 in NNE 6.4 mph 13.8 mph 40 % 0.00 in
17:41 31.6 °F 10.6 °F 30.43 in NW 8.6 mph 15.0 mph 41 % 0.00 in
17:46 31.5 °F 10.5 °F 30.43 in NE 10.0 mph 18.4 mph 41 % 0.00 in
17:51 31.5 °F 11.0 °F 30.44 in North 5.6 mph 15.0 mph 42 % 0.00 in
17:56 31.4 °F 12.0 °F 30.44 in NNW 9.5 mph 12.7 mph 44 % 0.00 in
18:02 31.3 °F 11.4 °F 30.45 in NNW 5.5 mph 9.2 mph 43 % 0.00 in
18:07 31.2 °F 10.2 °F 30.45 in West 8.0 mph 12.7 mph 41 % 0.00 in
18:12 31.1 °F 11.2 °F 30.46 in NNE 6.6 mph 11.5 mph 43 % 0.00 in
18:17 30.9 °F 10.5 °F 30.46 in North 5.9 mph 15.0 mph 42 % 0.00 in
18:22 30.8 °F 10.9 °F 30.46 in North 6.9 mph 11.5 mph 43 % 0.00 in
18:27 30.7 °F 11.3 °F 30.46 in North 8.5 mph 11.5 mph 44 % 0.00 in
18:32 30.6 °F 10.7 °F 30.46 in North 4.2 mph 10.4 mph 43 % 0.00 in
18:37 30.6 °F 11.2 °F 30.47 in NNW 7.9 mph 13.8 mph 44 % 0.00 in
18:42 30.6 °F 12.2 °F 30.47 in ENE 4.1 mph 7.0 mph 46 % 0.00 in
18:47 30.5 °F 10.6 °F 30.47 in NNE 6.4 mph 11.5 mph 43 % 0.00 in
18:53 30.4 °F 10.5 °F 30.47 in North 9.3 mph 17.3 mph 43 % 0.00 in
18:58 30.4 °F 11.6 °F 30.48 in North 4.8 mph 9.2 mph 45 % 0.00 in
19:03 30.3 °F 11.5 °F 30.48 in NNE 6.9 mph 10.4 mph 45 % 0.00 in
19:08 30.2 °F 10.9 °F 30.48 in NNE 7.1 mph 11.5 mph 44 % 0.00 in
19:13 30.2 °F 11.4 °F 30.49 in NNW 7.3 mph 11.5 mph 45 % 0.00 in
19:18 30.1 °F 12.3 °F 30.49 in North 6.1 mph 11.5 mph 47 % 0.00 in
19:28 30.0 °F 11.2 °F 30.49 in NNW 10.5 mph 12.7 mph 45 % 0.00 in
19:33 30.0 °F 12.2 °F 30.49 in NW 6.0 mph 11.5 mph 47 % 0.00 in
19:39 29.9 °F 11.6 °F 30.49 in NNW 4.3 mph 11.5 mph 46 % 0.00 in
19:44 29.8 °F 11.5 °F 30.49 in North 5.5 mph 11.5 mph 46 % 0.00 in
19:49 29.8 °F 12.0 °F 30.50 in NE 4.7 mph 9.0 mph 47 % 0.00 in
19:54 29.7 °F 11.4 °F 30.50 in North 6.6 mph 11.5 mph 46 % 0.00 in
19:59 29.6 °F 11.8 °F 30.50 in North 7.2 mph 11.5 mph 47 % 0.00 in
20:04 29.6 °F 11.8 °F 30.50 in North 9.1 mph 13.0 mph 47 % 0.00 in
20:09 29.6 °F 11.3 °F 30.50 in North 7.9 mph 12.7 mph 46 % 0.00 in
20:14 29.5 °F 11.2 °F 30.51 in NNE 6.7 mph 11.5 mph 46 % 0.00 in
20:19 29.5 °F 12.2 °F 30.51 in NNE 5.8 mph 9.2 mph 48 % 0.00 in
20:25 29.4 °F 11.6 °F 30.51 in NNE 7.5 mph 11.5 mph 47 % 0.00 in
20:30 29.4 °F 11.6 °F 30.51 in NNE 9.2 mph 17.3 mph 47 % 0.00 in
20:35 29.4 °F 12.1 °F 30.51 in NE 5.2 mph 13.8 mph 48 % 0.00 in
20:40 29.3 °F 12.0 °F 30.51 in NNE 9.8 mph 12.7 mph 48 % 0.00 in
20:45 29.3 °F 11.5 °F 30.51 in North 5.1 mph 8.1 mph 47 % 0.00 in
20:50 29.2 °F 12.4 °F 30.52 in NNW 8.4 mph 13.8 mph 49 % 0.00 in
21:00 29.1 °F 12.3 °F 30.52 in North 9.3 mph 13.0 mph 49 % 0.00 in
21:05 29.1 °F 11.8 °F 30.52 in NNE 6.3 mph 11.5 mph 48 % 0.00 in
21:10 29.0 °F 11.7 °F 30.52 in NE 7.0 mph 11.5 mph 48 % 0.00 in
21:16 28.9 °F 12.1 °F 30.51 in NNE 7.4 mph 11.5 mph 49 % 0.00 in
21:21 28.8 °F 12.0 °F 30.52 in NNE 8.7 mph 16.1 mph 49 % 0.00 in
21:26 28.8 °F 12.5 °F 30.52 in North 7.8 mph 11.5 mph 50 % 0.00 in
21:31 28.8 °F 13.8 °F 30.52 in NNE 5.9 mph 9.2 mph 53 % 0.00 in
21:36 28.7 °F 12.4 °F 30.52 in NE 6.2 mph 11.5 mph 50 % 0.00 in
21:41 28.6 °F 12.7 °F 30.52 in NNW 8.9 mph 11.5 mph 51 % 0.00 in
21:46 28.5 °F 13.1 °F 30.52 in NNW 8.7 mph 15.0 mph 52 % 0.00 in
21:51 28.5 °F 13.1 °F 30.53 in NNE 7.4 mph 12.7 mph 52 % 0.00 in
21:56 28.5 °F 13.5 °F 30.53 in NNE 8.5 mph 11.5 mph 53 % 0.00 in
22:01 28.4 °F 13.0 °F 30.53 in NNE 9.4 mph 15.0 mph 52 % 0.00 in
22:07 28.4 °F 13.0 °F 30.52 in NNW 8.5 mph 13.8 mph 52 % 0.00 in
22:12 28.3 °F 13.3 °F 30.52 in NNW 6.5 mph 10.4 mph 53 % 0.00 in
22:17 28.3 °F 13.8 °F 30.52 in NW 6.7 mph 11.5 mph 54 % 0.00 in
22:22 28.2 °F 13.2 °F 30.52 in NE 7.1 mph 11.5 mph 53 % 0.00 in
22:27 28.1 °F 13.1 °F 30.53 in North 9.2 mph 13.8 mph 53 % 0.00 in
22:32 28.1 °F 13.1 °F 30.52 in North 7.1 mph 11.5 mph 53 % 0.00 in
22:37 28.1 °F 13.6 °F 30.52 in NNW 9.0 mph 11.5 mph 54 % 0.00 in
22:42 28.0 °F 13.5 °F 30.52 in North 4.5 mph 7.0 mph 54 % 0.00 in
22:47 27.9 °F 13.4 °F 30.52 in North 7.2 mph 11.5 mph 54 % 0.00 in
22:52 27.9 °F 13.4 °F 30.51 in North 5.5 mph 13.8 mph 54 % 0.00 in
22:58 27.8 °F 13.3 °F 30.53 in North 7.2 mph 11.5 mph 54 % 0.00 in
23:03 27.7 °F 12.8 °F 30.52 in North 7.0 mph 11.5 mph 53 % 0.00 in
23:08 27.6 °F 13.1 °F 30.52 in WNW 5.5 mph 10.4 mph 54 % 0.00 in
23:13 27.6 °F 13.5 °F 30.52 in NE 6.7 mph 10.4 mph 55 % 0.00 in
23:18 27.5 °F 13.4 °F 30.52 in North 6.1 mph 11.5 mph 55 % 0.00 in
23:23 27.5 °F 13.8 °F 30.52 in NNE 6.1 mph 9.2 mph 56 % 0.00 in
23:28 27.4 °F 13.7 °F 30.52 in NE 7.7 mph 11.0 mph 56 % 0.00 in
23:33 27.4 °F 13.7 °F 30.52 in NNE 11.4 mph 17.3 mph 56 % 0.00 in
23:38 27.4 °F 13.7 °F 30.51 in North 8.0 mph 11.5 mph 56 % 0.00 in
23:43 27.3 °F 13.2 °F 30.50 in NE 8.9 mph 12.7 mph 55 % 0.00 in
23:49 27.2 °F 13.1 °F 30.50 in NE 10.6 mph 15.0 mph 55 % 0.00 in
23:54 27.2 °F 13.6 °F 30.50 in NNE 7.6 mph 11.5 mph 56 % 0.00 in
23:59 27.2 °F 14.0 °F 30.50 in NNE 4.8 mph 13.0 mph 57 % 0.00 in
Crab Meadow Weather
Compliments of Weather Underground - 2.75 mb

Script developed by  Jim McMurry - jmcmurry@mwt.net Adapted for the template by  Wim van der Kuil - Leuven-Template.eu

Weather Terms: Flood Warning (river flood)- A warning for specific communities or areas along a river where flooding is imminent or occurring. Flood warnings normally give specific crest forecasts.